DAL1644 KRIC-KDTW
Flight info
| Callsign | DAL1644 |
|---|---|
| Flight time | 1h 18m |
| Altitude | 30000 |
| Route | KALLI7 SANNY TUKEY J24 TARCI JAMOX KLYNK3 |
| Aircraft | A319/M-SDE3FGHIRWY/LB1 |
Departure
| Time | 2026-04-20 13:37 |
|---|---|
| Airport | Richmond International Airport (KRIC) |
Arrival
| Time | 2026-04-20 14:55 |
|---|---|
| Airport | Detroit Metropolitan Wayne County Airport (KDTW) |
| Time | Latitude | Longitude | Altitude | Speed | Heading |
|---|---|---|---|---|---|
| 2026-04-20 13:07 | 37.50642 | -77.33175 | 173 ft | 0 kts | 85° |
| 2026-04-20 13:29 | 37.50640 | -77.33201 | 172 ft | 4 kts | 88° |
| 2026-04-20 13:29 | 37.50643 | -77.33234 | 172 ft | 4 kts | 115° |
| 2026-04-20 13:29 | 37.50658 | -77.33256 | 172 ft | 4 kts | 167° |
| 2026-04-20 13:29 | 37.50672 | -77.33258 | 172 ft | 1 kts | 186° |
| 2026-04-20 13:30 | 37.50673 | -77.33258 | 172 ft | 0 kts | 186° |
| 2026-04-20 13:32 | 37.50672 | -77.33258 | 172 ft | 1 kts | 186° |
| 2026-04-20 13:33 | 37.50648 | -77.33261 | 172 ft | 5 kts | 186° |
| 2026-04-20 13:33 | 37.50597 | -77.33266 | 172 ft | 9 kts | 184° |
| 2026-04-20 13:33 | 37.50523 | -77.33265 | 172 ft | 13 kts | 163° |
| 2026-04-20 13:33 | 37.50465 | -77.33164 | 172 ft | 17 kts | 107° |
| 2026-04-20 13:34 | 37.50432 | -77.33066 | 172 ft | 17 kts | 137° |
| 2026-04-20 13:34 | 37.50319 | -77.33065 | 172 ft | 17 kts | 193° |
| 2026-04-20 13:34 | 37.50280 | -77.33019 | 172 ft | 7 kts | 116° |
| 2026-04-20 13:34 | 37.50230 | -77.33001 | 172 ft | 8 kts | 191° |
| 2026-04-20 13:35 | 37.50174 | -77.33021 | 172 ft | 9 kts | 194° |
| 2026-04-20 13:35 | 37.50109 | -77.33039 | 172 ft | 10 kts | 191° |
| 2026-04-20 13:35 | 37.50034 | -77.33063 | 172 ft | 13 kts | 193° |
| 2026-04-20 13:35 | 37.49947 | -77.33080 | 172 ft | 13 kts | 171° |
| 2026-04-20 13:36 | 37.49901 | -77.32991 | 170 ft | 13 kts | 94° |
| 2026-04-20 13:36 | 37.50003 | -77.32932 | 171 ft | 33 kts | 13° |
| 2026-04-20 13:36 | 37.50490 | -77.32784 | 173 ft | 108 kts | 13° |
| 2026-04-20 13:36 | 37.51396 | -77.32511 | 315 ft | 148 kts | 13° |
| 2026-04-20 13:37 | 37.52399 | -77.32248 | 1023 ft | 146 kts | 4° |
| 2026-04-20 13:37 | 37.53335 | -77.32685 | 1545 ft | 154 kts | 317° |
| 2026-04-20 13:37 | 37.53866 | -77.33867 | 2111 ft | 165 kts | 282° |
| 2026-04-20 13:37 | 37.53719 | -77.35388 | 2540 ft | 187 kts | 253° |
| 2026-04-20 13:38 | 37.53279 | -77.36992 | 3049 ft | 204 kts | 253° |
| 2026-04-20 13:38 | 37.52825 | -77.38809 | 3513 ft | 229 kts | 253° |
| 2026-04-20 13:38 | 37.52337 | -77.40807 | 4156 ft | 247 kts | 253° |
| 2026-04-20 13:38 | 37.51832 | -77.42891 | 5108 ft | 249 kts | 255° |
| 2026-04-20 13:39 | 37.51329 | -77.45013 | 6029 ft | 255 kts | 255° |
| 2026-04-20 13:39 | 37.50818 | -77.47152 | 7012 ft | 256 kts | 255° |
| 2026-04-20 13:39 | 37.50480 | -77.49358 | 7936 ft | 258 kts | 272° |
| 2026-04-20 13:39 | 37.50808 | -77.51573 | 8830 ft | 260 kts | 286° |
| 2026-04-20 13:40 | 37.51301 | -77.53772 | 9749 ft | 262 kts | 286° |
| 2026-04-20 13:40 | 37.51806 | -77.56010 | 10472 ft | 274 kts | 286° |
| 2026-04-20 13:40 | 37.52351 | -77.58412 | 10771 ft | 297 kts | 286° |
| 2026-04-20 13:40 | 37.52938 | -77.61015 | 10999 ft | 320 kts | 285° |
| 2026-04-20 13:41 | 37.53552 | -77.63755 | 11594 ft | 327 kts | 285° |
| 2026-04-20 13:41 | 37.54171 | -77.66522 | 12412 ft | 328 kts | 285° |
| 2026-04-20 13:41 | 37.54788 | -77.69281 | 13286 ft | 327 kts | 285° |
| 2026-04-20 13:41 | 37.55407 | -77.72045 | 14052 ft | 329 kts | 284° |
| 2026-04-20 13:42 | 37.56027 | -77.74837 | 14763 ft | 332 kts | 284° |
| 2026-04-20 13:42 | 37.57277 | -77.80469 | 16146 ft | 336 kts | 283° |
| 2026-04-20 13:42 | 37.57913 | -77.83331 | 16772 ft | 340 kts | 283° |
| 2026-04-20 13:43 | 37.58549 | -77.86206 | 17384 ft | 343 kts | 283° |
| 2026-04-20 13:43 | 37.59183 | -77.89079 | 17970 ft | 345 kts | 283° |
| 2026-04-20 13:43 | 37.59828 | -77.92001 | 18546 ft | 347 kts | 282° |
| 2026-04-20 13:43 | 37.60480 | -77.94948 | 19105 ft | 350 kts | 282° |
| 2026-04-20 13:44 | 37.61134 | -77.97918 | 19639 ft | 352 kts | 282° |
| 2026-04-20 13:44 | 37.61789 | -78.00911 | 20150 ft | 355 kts | 282° |
| 2026-04-20 13:44 | 37.62449 | -78.03922 | 20640 ft | 358 kts | 282° |
| 2026-04-20 13:44 | 37.63115 | -78.06957 | 21126 ft | 360 kts | 282° |
| 2026-04-20 13:45 | 37.63785 | -78.10014 | 21597 ft | 362 kts | 282° |
| 2026-04-20 13:45 | 37.64231 | -78.12052 | 21891 ft | 364 kts | 282° |
| 2026-04-20 13:45 | 37.65136 | -78.16188 | 22467 ft | 367 kts | 282° |
| 2026-04-20 13:45 | 37.65815 | -78.19298 | 22901 ft | 369 kts | 282° |
| 2026-04-20 13:46 | 37.66267 | -78.21372 | 23166 ft | 371 kts | 282° |
| 2026-04-20 13:46 | 37.66950 | -78.24515 | 23578 ft | 373 kts | 282° |
| 2026-04-20 13:46 | 37.67640 | -78.27689 | 23979 ft | 375 kts | 282° |
| 2026-04-20 13:46 | 37.68332 | -78.30878 | 24380 ft | 377 kts | 282° |
| 2026-04-20 13:47 | 37.69024 | -78.34076 | 24785 ft | 379 kts | 282° |
| 2026-04-20 13:47 | 37.69724 | -78.37289 | 25152 ft | 380 kts | 282° |
| 2026-04-20 13:47 | 37.70425 | -78.40511 | 25527 ft | 381 kts | 282° |
| 2026-04-20 13:47 | 37.71128 | -78.43753 | 25884 ft | 382 kts | 282° |
| 2026-04-20 13:48 | 37.71829 | -78.46994 | 26250 ft | 383 kts | 282° |
| 2026-04-20 13:48 | 37.72521 | -78.50207 | 26595 ft | 385 kts | 282° |
| 2026-04-20 13:48 | 37.73219 | -78.53475 | 26938 ft | 385 kts | 282° |
| 2026-04-20 13:48 | 37.73916 | -78.56735 | 27421 ft | 383 kts | 282° |
| 2026-04-20 13:49 | 37.74609 | -78.59971 | 27928 ft | 380 kts | 282° |
| 2026-04-20 13:49 | 37.75298 | -78.63180 | 28421 ft | 377 kts | 282° |
| 2026-04-20 13:49 | 37.75979 | -78.66364 | 28916 ft | 374 kts | 282° |
| 2026-04-20 13:49 | 37.76654 | -78.69532 | 29398 ft | 372 kts | 282° |
| 2026-04-20 13:50 | 37.77324 | -78.72686 | 29860 ft | 370 kts | 282° |
| 2026-04-20 13:50 | 37.77990 | -78.75818 | 30187 ft | 369 kts | 282° |
| 2026-04-20 13:50 | 37.79323 | -78.82101 | 30266 ft | 372 kts | 282° |
| 2026-04-20 13:51 | 37.80667 | -78.88449 | 30266 ft | 374 kts | 282° |
| 2026-04-20 13:51 | 37.82002 | -78.94772 | 30274 ft | 375 kts | 282° |
| 2026-04-20 13:52 | 37.83346 | -79.01149 | 30266 ft | 375 kts | 282° |
| 2026-04-20 13:52 | 37.84690 | -79.07532 | 30269 ft | 375 kts | 282° |
| 2026-04-20 13:53 | 37.86023 | -79.13920 | 30264 ft | 376 kts | 282° |
| 2026-04-20 13:53 | 37.87353 | -79.20332 | 30251 ft | 377 kts | 282° |
| 2026-04-20 13:54 | 37.88677 | -79.26704 | 30239 ft | 377 kts | 282° |
| 2026-04-20 13:54 | 37.90019 | -79.33173 | 30237 ft | 378 kts | 282° |
| 2026-04-20 13:55 | 37.91344 | -79.39576 | 30227 ft | 379 kts | 282° |
| 2026-04-20 13:55 | 37.92681 | -79.46053 | 30217 ft | 380 kts | 282° |
| 2026-04-20 13:56 | 37.94017 | -79.52545 | 30213 ft | 381 kts | 282° |
| 2026-04-20 13:56 | 37.95353 | -79.59045 | 30213 ft | 381 kts | 282° |
| 2026-04-20 13:57 | 37.96683 | -79.65564 | 30211 ft | 382 kts | 282° |
| 2026-04-20 13:57 | 37.97999 | -79.72044 | 30203 ft | 382 kts | 282° |
| 2026-04-20 13:58 | 37.99320 | -79.78570 | 30196 ft | 382 kts | 282° |
| 2026-04-20 13:58 | 38.00637 | -79.85104 | 30195 ft | 383 kts | 282° |
| 2026-04-20 13:59 | 38.01958 | -79.91649 | 30195 ft | 383 kts | 282° |
| 2026-04-20 13:59 | 38.03281 | -79.98181 | 30196 ft | 382 kts | 282° |
| 2026-04-20 14:00 | 38.04597 | -80.04727 | 30204 ft | 383 kts | 282° |
| 2026-04-20 14:00 | 38.05911 | -80.11280 | 30214 ft | 383 kts | 282° |
| 2026-04-20 14:01 | 38.07209 | -80.17833 | 30224 ft | 383 kts | 282° |
| 2026-04-20 14:01 | 38.08513 | -80.24379 | 30234 ft | 383 kts | 282° |
| 2026-04-20 14:02 | 38.09811 | -80.30924 | 30242 ft | 382 kts | 282° |
| 2026-04-20 14:02 | 38.11106 | -80.37471 | 30239 ft | 382 kts | 282° |
| 2026-04-20 14:03 | 38.12383 | -80.43988 | 30255 ft | 383 kts | 282° |
| 2026-04-20 14:03 | 38.13672 | -80.50565 | 30267 ft | 383 kts | 282° |
| 2026-04-20 14:04 | 38.14953 | -80.57141 | 30271 ft | 384 kts | 282° |
| 2026-04-20 14:04 | 38.16237 | -80.63731 | 30274 ft | 384 kts | 282° |
| 2026-04-20 14:05 | 38.17522 | -80.70318 | 30278 ft | 385 kts | 282° |
| 2026-04-20 14:05 | 38.18796 | -80.76926 | 30285 ft | 385 kts | 282° |
| 2026-04-20 14:06 | 38.20020 | -80.83551 | 30289 ft | 385 kts | 281° |
| 2026-04-20 14:06 | 38.21103 | -80.90219 | 30295 ft | 386 kts | 280° |
| 2026-04-20 14:07 | 38.22156 | -80.96871 | 30302 ft | 386 kts | 280° |
| 2026-04-20 14:07 | 38.23233 | -81.03556 | 30309 ft | 386 kts | 280° |
| 2026-04-20 14:08 | 38.24319 | -81.10235 | 30309 ft | 385 kts | 280° |
| 2026-04-20 14:08 | 38.25406 | -81.16904 | 30317 ft | 385 kts | 280° |
| 2026-04-20 14:09 | 38.26536 | -81.23576 | 30319 ft | 386 kts | 285° |
| 2026-04-20 14:09 | 38.27605 | -81.26724 | 30320 ft | 391 kts | 296° |
| 2026-04-20 14:09 | 38.29247 | -81.29520 | 30323 ft | 399 kts | 308° |
| 2026-04-20 14:10 | 38.31426 | -81.31797 | 30322 ft | 412 kts | 320° |
| 2026-04-20 14:10 | 38.34056 | -81.33375 | 30324 ft | 427 kts | 333° |
| 2026-04-20 14:10 | 38.39786 | -81.35542 | 30325 ft | 430 kts | 334° |
| 2026-04-20 14:11 | 38.45485 | -81.37692 | 30330 ft | 430 kts | 334° |
| 2026-04-20 14:11 | 38.51236 | -81.39870 | 30336 ft | 431 kts | 334° |
| 2026-04-20 14:12 | 38.56975 | -81.42046 | 30340 ft | 430 kts | 334° |
| 2026-04-20 14:12 | 38.62710 | -81.44230 | 30346 ft | 430 kts | 334° |
| 2026-04-20 14:13 | 38.68449 | -81.46431 | 30350 ft | 430 kts | 334° |
| 2026-04-20 14:13 | 38.74184 | -81.48626 | 30352 ft | 430 kts | 334° |
| 2026-04-20 14:14 | 38.79940 | -81.50821 | 30355 ft | 430 kts | 334° |
| 2026-04-20 14:14 | 38.85676 | -81.53018 | 30363 ft | 430 kts | 334° |
| 2026-04-20 14:15 | 38.91407 | -81.55221 | 30374 ft | 430 kts | 334° |
| 2026-04-20 14:15 | 38.97135 | -81.57423 | 30383 ft | 429 kts | 334° |
| 2026-04-20 14:16 | 39.02815 | -81.59616 | 30388 ft | 428 kts | 334° |
| 2026-04-20 14:16 | 39.08518 | -81.61824 | 30393 ft | 428 kts | 334° |
| 2026-04-20 14:17 | 39.14210 | -81.64027 | 30394 ft | 427 kts | 334° |
| 2026-04-20 14:17 | 39.19908 | -81.66226 | 30400 ft | 426 kts | 334° |
| 2026-04-20 14:18 | 39.25587 | -81.68426 | 30402 ft | 425 kts | 334° |
| 2026-04-20 14:18 | 39.31248 | -81.70635 | 30402 ft | 424 kts | 334° |
| 2026-04-20 14:19 | 39.36847 | -81.72819 | 30400 ft | 422 kts | 334° |
| 2026-04-20 14:19 | 39.42502 | -81.75021 | 30403 ft | 421 kts | 334° |
| 2026-04-20 14:20 | 39.48078 | -81.77199 | 30398 ft | 421 kts | 334° |
| 2026-04-20 14:20 | 39.53683 | -81.79399 | 30402 ft | 420 kts | 334° |
| 2026-04-20 14:21 | 39.59278 | -81.81581 | 30403 ft | 419 kts | 334° |
| 2026-04-20 14:21 | 39.64851 | -81.83770 | 30391 ft | 418 kts | 334° |
| 2026-04-20 14:22 | 39.70416 | -81.85950 | 30396 ft | 420 kts | 336° |
| 2026-04-20 14:22 | 39.76271 | -81.87159 | 30397 ft | 427 kts | 342° |
| 2026-04-20 14:23 | 39.82125 | -81.88192 | 30390 ft | 428 kts | 343° |
| 2026-04-20 14:23 | 39.88016 | -81.89232 | 30399 ft | 426 kts | 342° |
| 2026-04-20 14:24 | 39.93890 | -81.90288 | 30400 ft | 426 kts | 342° |
| 2026-04-20 14:24 | 39.99757 | -81.91336 | 30393 ft | 426 kts | 343° |
| 2026-04-20 14:25 | 40.05624 | -81.92372 | 30392 ft | 425 kts | 342° |
| 2026-04-20 14:25 | 40.11480 | -81.93432 | 30385 ft | 425 kts | 342° |
| 2026-04-20 14:26 | 40.17330 | -81.94492 | 30386 ft | 425 kts | 342° |
| 2026-04-20 14:26 | 40.23194 | -81.95545 | 30383 ft | 425 kts | 343° |
| 2026-04-20 14:27 | 40.29062 | -81.96599 | 30384 ft | 425 kts | 343° |
| 2026-04-20 14:27 | 40.34926 | -81.97658 | 30385 ft | 425 kts | 343° |
| 2026-04-20 14:28 | 40.40798 | -81.98719 | 30386 ft | 426 kts | 343° |
| 2026-04-20 14:28 | 40.46673 | -81.99787 | 30374 ft | 426 kts | 343° |
| 2026-04-20 14:29 | 40.52509 | -82.00858 | 30381 ft | 426 kts | 343° |
| 2026-04-20 14:29 | 40.58256 | -82.02429 | 30366 ft | 418 kts | 337° |
| 2026-04-20 14:30 | 40.63885 | -82.04355 | 30365 ft | 418 kts | 337° |
| 2026-04-20 14:30 | 40.69522 | -82.06278 | 30368 ft | 418 kts | 338° |
| 2026-04-20 14:31 | 40.75160 | -82.08198 | 30365 ft | 419 kts | 338° |
| 2026-04-20 14:31 | 40.80816 | -82.10141 | 30379 ft | 419 kts | 338° |
| 2026-04-20 14:32 | 40.86426 | -82.12076 | 30379 ft | 420 kts | 338° |
| 2026-04-20 14:32 | 40.92093 | -82.14015 | 30373 ft | 421 kts | 339° |
| 2026-04-20 14:33 | 40.97774 | -82.15970 | 30041 ft | 422 kts | 339° |
| 2026-04-20 14:33 | 41.00616 | -82.16953 | 29786 ft | 422 kts | 339° |
| 2026-04-20 14:33 | 41.03456 | -82.17938 | 29534 ft | 423 kts | 339° |
| 2026-04-20 14:34 | 41.06302 | -82.18923 | 29285 ft | 423 kts | 339° |
| 2026-04-20 14:34 | 41.08190 | -82.19574 | 29119 ft | 424 kts | 339° |
| 2026-04-20 14:34 | 41.11036 | -82.20554 | 28240 ft | 423 kts | 339° |
| 2026-04-20 14:34 | 41.13873 | -82.21529 | 27662 ft | 415 kts | 339° |
| 2026-04-20 14:35 | 41.17462 | -82.22744 | 27482 ft | 389 kts | 339° |
| 2026-04-20 14:35 | 41.20036 | -82.23618 | 27247 ft | 375 kts | 339° |
| 2026-04-20 14:35 | 41.21682 | -82.24350 | 27073 ft | 365 kts | 331° |
| 2026-04-20 14:35 | 41.23879 | -82.25927 | 26828 ft | 355 kts | 321° |
| 2026-04-20 14:36 | 41.25819 | -82.27918 | 26520 ft | 352 kts | 317° |
| 2026-04-20 14:36 | 41.27730 | -82.29936 | 26025 ft | 349 kts | 318° |
| 2026-04-20 14:36 | 41.29634 | -82.31933 | 25520 ft | 346 kts | 318° |
| 2026-04-20 14:36 | 41.31497 | -82.33882 | 25024 ft | 344 kts | 318° |
| 2026-04-20 14:37 | 41.33369 | -82.35839 | 24523 ft | 341 kts | 318° |
| 2026-04-20 14:37 | 41.35229 | -82.37783 | 24028 ft | 339 kts | 319° |
| 2026-04-20 14:37 | 41.37080 | -82.39719 | 23526 ft | 337 kts | 319° |
| 2026-04-20 14:37 | 41.38917 | -82.41643 | 23045 ft | 335 kts | 319° |
| 2026-04-20 14:38 | 41.40748 | -82.43565 | 22536 ft | 334 kts | 319° |
| 2026-04-20 14:38 | 41.42564 | -82.45478 | 22065 ft | 332 kts | 319° |
| 2026-04-20 14:38 | 41.44367 | -82.47382 | 21593 ft | 330 kts | 319° |
| 2026-04-20 14:38 | 41.46159 | -82.49272 | 21400 ft | 327 kts | 319° |
| 2026-04-20 14:39 | 41.47942 | -82.51158 | 21410 ft | 328 kts | 319° |
| 2026-04-20 14:39 | 41.49731 | -82.53046 | 21412 ft | 328 kts | 319° |
| 2026-04-20 14:39 | 41.51521 | -82.54937 | 21413 ft | 328 kts | 319° |
| 2026-04-20 14:39 | 41.53311 | -82.56828 | 21412 ft | 328 kts | 319° |
| 2026-04-20 14:40 | 41.55100 | -82.58723 | 21413 ft | 328 kts | 319° |
| 2026-04-20 14:40 | 41.56888 | -82.60622 | 21411 ft | 328 kts | 319° |
| 2026-04-20 14:40 | 41.58675 | -82.62516 | 21424 ft | 328 kts | 319° |
| 2026-04-20 14:40 | 41.60464 | -82.64413 | 21416 ft | 328 kts | 319° |
| 2026-04-20 14:41 | 41.62251 | -82.66316 | 21424 ft | 328 kts | 319° |
| 2026-04-20 14:41 | 41.64033 | -82.68215 | 21425 ft | 327 kts | 319° |
| 2026-04-20 14:41 | 41.65813 | -82.70111 | 21418 ft | 327 kts | 319° |
| 2026-04-20 14:41 | 41.67574 | -82.71981 | 21416 ft | 327 kts | 319° |
| 2026-04-20 14:42 | 41.69359 | -82.73872 | 21413 ft | 327 kts | 319° |
| 2026-04-20 14:42 | 41.71139 | -82.75760 | 21402 ft | 325 kts | 319° |
| 2026-04-20 14:42 | 41.72750 | -82.77471 | 21155 ft | 309 kts | 319° |
| 2026-04-20 14:42 | 41.74048 | -82.78850 | 20679 ft | 304 kts | 319° |
| 2026-04-20 14:43 | 41.75436 | -82.80547 | 20081 ft | 297 kts | 311° |
| 2026-04-20 14:43 | 41.76819 | -82.82583 | 19461 ft | 292 kts | 311° |
| 2026-04-20 14:43 | 41.78159 | -82.84546 | 18984 ft | 283 kts | 311° |
| 2026-04-20 14:43 | 41.79478 | -82.86476 | 18381 ft | 279 kts | 311° |
| 2026-04-20 14:44 | 41.80783 | -82.88386 | 17788 ft | 275 kts | 311° |
| 2026-04-20 14:44 | 41.82072 | -82.90278 | 17167 ft | 273 kts | 311° |
| 2026-04-20 14:44 | 41.83346 | -82.92149 | 16562 ft | 271 kts | 311° |
| 2026-04-20 14:44 | 41.84612 | -82.94005 | 15971 ft | 268 kts | 311° |
| 2026-04-20 14:45 | 41.85865 | -82.95843 | 15387 ft | 265 kts | 311° |
| 2026-04-20 14:45 | 41.87059 | -82.97713 | 14786 ft | 263 kts | 303° |
| 2026-04-20 14:45 | 41.87842 | -82.99914 | 14208 ft | 262 kts | 288° |
| 2026-04-20 14:45 | 41.88110 | -83.02304 | 13628 ft | 263 kts | 277° |
| 2026-04-20 14:46 | 41.88217 | -83.04748 | 13025 ft | 261 kts | 277° |
| 2026-04-20 14:46 | 41.88327 | -83.07178 | 12431 ft | 259 kts | 277° |
| 2026-04-20 14:46 | 41.88436 | -83.09587 | 11854 ft | 257 kts | 277° |
| 2026-04-20 14:46 | 41.88545 | -83.11952 | 11349 ft | 251 kts | 277° |
| 2026-04-20 14:47 | 41.88652 | -83.14281 | 10777 ft | 250 kts | 277° |
| 2026-04-20 14:47 | 41.88758 | -83.16610 | 10141 ft | 250 kts | 277° |
| 2026-04-20 14:47 | 41.88864 | -83.18942 | 9499 ft | 250 kts | 277° |
| 2026-04-20 14:48 | 41.89078 | -83.23630 | 8220 ft | 252 kts | 276° |
| 2026-04-20 14:48 | 41.89201 | -83.25975 | 7625 ft | 249 kts | 281° |
| 2026-04-20 14:48 | 41.89768 | -83.28126 | 7365 ft | 246 kts | 303° |
| 2026-04-20 14:48 | 41.90934 | -83.29749 | 7051 ft | 247 kts | 326° |
| 2026-04-20 14:49 | 41.92419 | -83.30870 | 6721 ft | 241 kts | 330° |
| 2026-04-20 14:49 | 41.93875 | -83.31935 | 6409 ft | 238 kts | 330° |
| 2026-04-20 14:49 | 41.95328 | -83.32997 | 6080 ft | 238 kts | 330° |
| 2026-04-20 14:49 | 41.96790 | -83.34063 | 5774 ft | 243 kts | 330° |
| 2026-04-20 14:50 | 41.98253 | -83.35126 | 5470 ft | 235 kts | 330° |
| 2026-04-20 14:50 | 41.99671 | -83.36153 | 5097 ft | 230 kts | 331° |
| 2026-04-20 14:50 | 42.01074 | -83.37157 | 4663 ft | 227 kts | 331° |
| 2026-04-20 14:50 | 42.02464 | -83.38134 | 4259 ft | 224 kts | 332° |
| 2026-04-20 14:51 | 42.03822 | -83.39081 | 3951 ft | 214 kts | 332° |
| 2026-04-20 14:51 | 42.05125 | -83.39998 | 3640 ft | 208 kts | 332° |
| 2026-04-20 14:51 | 42.06395 | -83.40891 | 3296 ft | 205 kts | 332° |
| 2026-04-20 14:51 | 42.07648 | -83.41771 | 2925 ft | 202 kts | 332° |
| 2026-04-20 14:52 | 42.08948 | -83.42282 | 2732 ft | 190 kts | 5° |
| 2026-04-20 14:52 | 42.10159 | -83.41880 | 2781 ft | 171 kts | 13° |
| 2026-04-20 14:52 | 42.11273 | -83.41282 | 2656 ft | 172 kts | 25° |
| 2026-04-20 14:52 | 42.12308 | -83.40498 | 2445 ft | 167 kts | 27° |
| 2026-04-20 14:53 | 42.13282 | -83.39775 | 2198 ft | 152 kts | 25° |
| 2026-04-20 14:53 | 42.14185 | -83.39126 | 1926 ft | 143 kts | 26° |
| 2026-04-20 14:53 | 42.15037 | -83.38501 | 1638 ft | 134 kts | 27° |
| 2026-04-20 14:53 | 42.15825 | -83.37915 | 1464 ft | 127 kts | 26° |
| 2026-04-20 14:54 | 42.16609 | -83.37357 | 1322 ft | 128 kts | 25° |
| 2026-04-20 14:54 | 42.17393 | -83.36812 | 1160 ft | 127 kts | 25° |
| 2026-04-20 14:54 | 42.18151 | -83.36217 | 979 ft | 125 kts | 26° |
| 2026-04-20 14:54 | 42.18924 | -83.35662 | 800 ft | 127 kts | 26° |
| 2026-04-20 14:55 | 42.19678 | -83.35097 | 663 ft | 125 kts | 27° |
| 2026-04-20 14:55 | 42.20361 | -83.34594 | 648 ft | 81 kts | 29° |
| 2026-04-20 14:55 | 42.20607 | -83.34423 | 648 ft | 14 kts | 18° |
| 2026-04-20 14:55 | 42.20739 | -83.34385 | 646 ft | 24 kts | 5° |
| 2026-04-20 14:56 | 42.20908 | -83.34385 | 647 ft | 24 kts | 2° |
| 2026-04-20 14:56 | 42.21057 | -83.34448 | 648 ft | 24 kts | 300° |
| 2026-04-20 14:56 | 42.21127 | -83.34650 | 647 ft | 24 kts | 300° |
| 2026-04-20 14:56 | 42.21216 | -83.34858 | 644 ft | 26 kts | 300° |
| 2026-04-20 14:57 | 42.21362 | -83.34974 | 650 ft | 24 kts | 330° |
| 2026-04-20 14:57 | 42.21498 | -83.35085 | 649 ft | 12 kts | 324° |
| 2026-04-20 14:57 | 42.21479 | -83.35153 | 648 ft | 10 kts | 208° |
| 2026-04-20 14:57 | 42.21412 | -83.35200 | 648 ft | 12 kts | 212° |
| 2026-04-20 14:58 | 42.21351 | -83.35252 | 648 ft | 8 kts | 224° |
| 2026-04-20 14:58 | 42.21360 | -83.35315 | 647 ft | 6 kts | 299° |
| 2026-04-20 14:58 | 42.21370 | -83.35340 | 647 ft | 2 kts | 298° |
| 2026-04-20 14:58 | 42.21372 | -83.35345 | 649 ft | 0 kts | 298° |